sensor_id;sensor_type;location;lat;lon;timestamp;P1;durP1;ratioP1;P2;durP2;ratioP2
41739;SDS011;27422;52.444;13.300;2023-05-07T00:01:00;11.73;;;8.02;;
41739;SDS011;27422;52.444;13.300;2023-05-07T00:03:25;13.63;;;8.60;;
41739;SDS011;27422;52.444;13.300;2023-05-07T00:05:51;13.27;;;8.45;;
41739;SDS011;27422;52.444;13.300;2023-05-07T00:08:18;14.95;;;8.18;;
41739;SDS011;27422;52.444;13.300;2023-05-07T00:10:43;15.80;;;8.85;;
41739;SDS011;27422;52.444;13.300;2023-05-07T00:13:09;15.85;;;8.65;;
41739;SDS011;27422;52.444;13.300;2023-05-07T00:15:35;13.57;;;8.00;;
41739;SDS011;27422;52.444;13.300;2023-05-07T00:18:00;15.13;;;8.65;;
41739;SDS011;27422;52.444;13.300;2023-05-07T00:20:26;11.35;;;7.80;;
41739;SDS011;27422;52.444;13.300;2023-05-07T00:22:51;15.77;;;8.27;;
41739;SDS011;27422;52.444;13.300;2023-05-07T00:25:17;12.60;;;8.30;;
41739;SDS011;27422;52.444;13.300;2023-05-07T00:27:44;11.35;;;7.18;;
41739;SDS011;27422;52.444;13.300;2023-05-07T00:30:10;12.93;;;7.85;;
41739;SDS011;27422;52.444;13.300;2023-05-07T00:32:36;14.48;;;8.07;;
41739;SDS011;27422;52.444;13.300;2023-05-07T00:35:02;11.82;;;7.32;;
41739;SDS011;27422;52.444;13.300;2023-05-07T00:37:28;15.70;;;7.78;;
41739;SDS011;27422;52.444;13.300;2023-05-07T00:39:53;12.32;;;7.53;;
41739;SDS011;27422;52.444;13.300;2023-05-07T00:42:18;14.32;;;8.10;;
41739;SDS011;27422;52.444;13.300;2023-05-07T00:44:44;13.10;;;7.95;;
41739;SDS011;27422;52.444;13.300;2023-05-07T00:47:09;12.02;;;7.43;;
41739;SDS011;27422;52.444;13.300;2023-05-07T00:49:38;12.77;;;7.55;;
41739;SDS011;27422;52.444;13.300;2023-05-07T00:52:06;14.15;;;7.75;;
41739;SDS011;27422;52.444;13.300;2023-05-07T00:54:32;11.32;;;7.47;;
41739;SDS011;27422;52.444;13.300;2023-05-07T00:56:58;11.10;;;6.85;;
41739;SDS011;27422;52.444;13.300;2023-05-07T00:59:24;13.40;;;7.15;;
41739;SDS011;27422;52.444;13.300;2023-05-07T01:01:49;10.60;;;6.32;;
41739;SDS011;27422;52.444;13.300;2023-05-07T01:04:15;12.18;;;6.22;;
41739;SDS011;27422;52.444;13.300;2023-05-07T01:06:40;11.27;;;6.75;;
41739;SDS011;27422;52.444;13.300;2023-05-07T01:09:06;10.57;;;6.30;;
41739;SDS011;27422;52.444;13.300;2023-05-07T01:11:32;10.60;;;6.90;;
41739;SDS011;27422;52.444;13.300;2023-05-07T01:13:58;9.82;;;6.40;;
41739;SDS011;27422;52.444;13.300;2023-05-07T01:16:24;10.20;;;6.32;;
41739;SDS011;27422;52.444;13.300;2023-05-07T01:18:50;12.48;;;5.22;;
41739;SDS011;27422;52.444;13.300;2023-05-07T01:21:16;9.52;;;6.13;;
41739;SDS011;27422;52.444;13.300;2023-05-07T01:23:43;9.90;;;5.65;;
41739;SDS011;27422;52.444;13.300;2023-05-07T01:26:10;8.23;;;5.55;;
41739;SDS011;27422;52.444;13.300;2023-05-07T01:28:35;8.77;;;5.97;;
41739;SDS011;27422;52.444;13.300;2023-05-07T01:31:01;11.07;;;6.15;;
41739;SDS011;27422;52.444;13.300;2023-05-07T01:33:28;12.32;;;6.05;;
41739;SDS011;27422;52.444;13.300;2023-05-07T01:36:15;9.43;;;6.10;;
41739;SDS011;27422;52.444;13.300;2023-05-07T01:38:42;10.43;;;6.70;;
41739;SDS011;27422;52.444;13.300;2023-05-07T01:41:08;9.65;;;6.07;;
41739;SDS011;27422;52.444;13.300;2023-05-07T01:43:33;11.63;;;6.63;;
41739;SDS011;27422;52.444;13.300;2023-05-07T01:45:58;9.77;;;6.53;;
41739;SDS011;27422;52.444;13.300;2023-05-07T01:48:25;10.85;;;6.35;;
41739;SDS011;27422;52.444;13.300;2023-05-07T01:50:50;11.68;;;6.78;;
41739;SDS011;27422;52.444;13.300;2023-05-07T01:53:16;11.23;;;7.38;;
41739;SDS011;27422;52.444;13.300;2023-05-07T01:55:42;11.75;;;7.28;;
41739;SDS011;27422;52.444;13.300;2023-05-07T01:58:07;13.20;;;7.25;;
41739;SDS011;27422;52.444;13.300;2023-05-07T02:00:32;11.40;;;7.10;;
41739;SDS011;27422;52.444;13.300;2023-05-07T02:02:58;10.75;;;7.38;;
41739;SDS011;27422;52.444;13.300;2023-05-07T02:05:23;10.55;;;7.05;;
41739;SDS011;27422;52.444;13.300;2023-05-07T02:07:53;14.95;;;7.65;;
41739;SDS011;27422;52.444;13.300;2023-05-07T02:10:29;14.70;;;7.20;;
41739;SDS011;27422;52.444;13.300;2023-05-07T02:12:55;11.05;;;7.53;;
41739;SDS011;27422;52.444;13.300;2023-05-07T02:15:20;13.70;;;7.18;;
41739;SDS011;27422;52.444;13.300;2023-05-07T02:17:57;12.77;;;6.43;;
41739;SDS011;27422;52.444;13.300;2023-05-07T02:20:32;9.93;;;6.68;;
41739;SDS011;27422;52.444;13.300;2023-05-07T02:22:58;9.15;;;6.78;;
41739;SDS011;27422;52.444;13.300;2023-05-07T02:25:23;11.50;;;6.72;;
41739;SDS011;27422;52.444;13.300;2023-05-07T02:27:48;13.45;;;7.15;;
41739;SDS011;27422;52.444;13.300;2023-05-07T02:30:14;10.07;;;6.65;;
41739;SDS011;27422;52.444;13.300;2023-05-07T02:32:39;10.70;;;7.03;;
41739;SDS011;27422;52.444;13.300;2023-05-07T02:35:05;11.32;;;6.43;;
41739;SDS011;27422;52.444;13.300;2023-05-07T02:37:31;10.68;;;6.68;;
41739;SDS011;27422;52.444;13.300;2023-05-07T02:39:56;10.00;;;6.70;;
41739;SDS011;27422;52.444;13.300;2023-05-07T02:42:21;12.20;;;7.00;;
41739;SDS011;27422;52.444;13.300;2023-05-07T02:44:47;10.25;;;6.05;;
41739;SDS011;27422;52.444;13.300;2023-05-07T02:47:13;10.38;;;6.05;;
41739;SDS011;27422;52.444;13.300;2023-05-07T02:49:40;10.23;;;6.53;;
41739;SDS011;27422;52.444;13.300;2023-05-07T02:52:05;10.30;;;6.30;;
41739;SDS011;27422;52.444;13.300;2023-05-07T02:54:31;9.00;;;6.25;;
41739;SDS011;27422;52.444;13.300;2023-05-07T02:56:56;10.00;;;6.53;;
41739;SDS011;27422;52.444;13.300;2023-05-07T02:59:22;10.35;;;6.80;;
41739;SDS011;27422;52.444;13.300;2023-05-07T03:01:48;11.13;;;6.72;;
41739;SDS011;27422;52.444;13.300;2023-05-07T03:04:14;10.73;;;6.22;;
41739;SDS011;27422;52.444;13.300;2023-05-07T03:06:39;9.02;;;6.13;;
41739;SDS011;27422;52.444;13.300;2023-05-07T03:09:04;9.23;;;5.90;;
41739;SDS011;27422;52.444;13.300;2023-05-07T03:11:30;11.65;;;6.70;;
41739;SDS011;27422;52.444;13.300;2023-05-07T03:13:55;10.98;;;6.35;;
41739;SDS011;27422;52.444;13.300;2023-05-07T03:16:21;10.38;;;6.70;;
41739;SDS011;27422;52.444;13.300;2023-05-07T03:18:46;8.88;;;5.78;;
41739;SDS011;27422;52.444;13.300;2023-05-07T03:21:11;8.88;;;5.80;;
41739;SDS011;27422;52.444;13.300;2023-05-07T03:23:37;9.63;;;6.15;;
41739;SDS011;27422;52.444;13.300;2023-05-07T03:26:02;10.52;;;5.70;;
41739;SDS011;27422;52.444;13.300;2023-05-07T03:28:28;9.25;;;5.95;;
41739;SDS011;27422;52.444;13.300;2023-05-07T03:30:53;7.43;;;5.13;;
41739;SDS011;27422;52.444;13.300;2023-05-07T03:33:18;8.70;;;6.05;;
41739;SDS011;27422;52.444;13.300;2023-05-07T03:35:44;11.43;;;7.00;;
41739;SDS011;27422;52.444;13.300;2023-05-07T03:38:09;11.07;;;6.05;;
41739;SDS011;27422;52.444;13.300;2023-05-07T03:40:36;11.93;;;7.05;;
41739;SDS011;27422;52.444;13.300;2023-05-07T03:43:01;9.60;;;5.85;;
41739;SDS011;27422;52.444;13.300;2023-05-07T03:45:27;10.57;;;6.10;;
41739;SDS011;27422;52.444;13.300;2023-05-07T03:47:52;8.73;;;6.30;;
41739;SDS011;27422;52.444;13.300;2023-05-07T03:50:17;9.48;;;6.05;;
41739;SDS011;27422;52.444;13.300;2023-05-07T03:52:43;11.15;;;7.07;;
41739;SDS011;27422;52.444;13.300;2023-05-07T03:55:09;10.00;;;6.20;;
41739;SDS011;27422;52.444;13.300;2023-05-07T03:57:34;11.25;;;6.13;;
41739;SDS011;27422;52.444;13.300;2023-05-07T04:00:00;10.23;;;6.82;;
41739;SDS011;27422;52.444;13.300;2023-05-07T04:02:25;9.77;;;6.05;;
41739;SDS011;27422;52.444;13.300;2023-05-07T04:04:51;10.38;;;6.70;;
41739;SDS011;27422;52.444;13.300;2023-05-07T04:07:17;11.80;;;6.72;;
41739;SDS011;27422;52.444;13.300;2023-05-07T04:09:42;10.00;;;6.43;;
41739;SDS011;27422;52.444;13.300;2023-05-07T04:12:07;9.65;;;5.95;;
41739;SDS011;27422;52.444;13.300;2023-05-07T04:14:33;9.70;;;6.25;;
41739;SDS011;27422;52.444;13.300;2023-05-07T04:16:59;10.48;;;6.72;;
41739;SDS011;27422;52.444;13.300;2023-05-07T04:19:24;9.50;;;6.70;;
41739;SDS011;27422;52.444;13.300;2023-05-07T04:21:50;13.07;;;6.30;;
41739;SDS011;27422;52.444;13.300;2023-05-07T04:24:15;10.38;;;6.57;;
41739;SDS011;27422;52.444;13.300;2023-05-07T04:26:41;10.18;;;6.32;;
41739;SDS011;27422;52.444;13.300;2023-05-07T04:29:06;10.05;;;6.53;;
41739;SDS011;27422;52.444;13.300;2023-05-07T04:31:31;11.82;;;6.47;;
41739;SDS011;27422;52.444;13.300;2023-05-07T04:33:57;11.50;;;6.57;;
41739;SDS011;27422;52.444;13.300;2023-05-07T04:36:22;10.43;;;6.18;;
41739;SDS011;27422;52.444;13.300;2023-05-07T04:38:48;8.90;;;6.15;;
41739;SDS011;27422;52.444;13.300;2023-05-07T04:41:14;10.13;;;6.40;;
41739;SDS011;27422;52.444;13.300;2023-05-07T04:43:40;8.35;;;5.22;;
41739;SDS011;27422;52.444;13.300;2023-05-07T04:46:06;9.93;;;6.00;;
41739;SDS011;27422;52.444;13.300;2023-05-07T04:48:32;8.80;;;5.35;;
41739;SDS011;27422;52.444;13.300;2023-05-07T04:50:57;13.10;;;5.85;;
41739;SDS011;27422;52.444;13.300;2023-05-07T04:53:23;8.45;;;5.25;;
41739;SDS011;27422;52.444;13.300;2023-05-07T04:55:48;10.45;;;5.50;;
41739;SDS011;27422;52.444;13.300;2023-05-07T04:58:13;8.38;;;4.70;;
41739;SDS011;27422;52.444;13.300;2023-05-07T05:00:39;10.32;;;5.85;;
41739;SDS011;27422;52.444;13.300;2023-05-07T05:03:06;10.60;;;5.30;;
41739;SDS011;27422;52.444;13.300;2023-05-07T05:05:32;7.10;;;4.88;;
41739;SDS011;27422;52.444;13.300;2023-05-07T05:07:57;8.73;;;4.88;;
41739;SDS011;27422;52.444;13.300;2023-05-07T05:10:22;9.82;;;5.70;;
41739;SDS011;27422;52.444;13.300;2023-05-07T05:12:48;9.65;;;5.30;;
41739;SDS011;27422;52.444;13.300;2023-05-07T05:15:13;8.27;;;5.03;;
41739;SDS011;27422;52.444;13.300;2023-05-07T05:17:39;7.55;;;4.85;;
41739;SDS011;27422;52.444;13.300;2023-05-07T05:20:05;12.05;;;5.07;;
41739;SDS011;27422;52.444;13.300;2023-05-07T05:22:31;9.82;;;5.07;;
41739;SDS011;27422;52.444;13.300;2023-05-07T05:24:57;9.70;;;5.28;;
41739;SDS011;27422;52.444;13.300;2023-05-07T05:27:22;11.00;;;4.90;;
41739;SDS011;27422;52.444;13.300;2023-05-07T05:29:47;9.15;;;4.85;;
41739;SDS011;27422;52.444;13.300;2023-05-07T05:32:13;8.45;;;5.05;;
41739;SDS011;27422;52.444;13.300;2023-05-07T05:34:38;6.90;;;4.55;;
41739;SDS011;27422;52.444;13.300;2023-05-07T05:37:03;6.93;;;4.38;;
41739;SDS011;27422;52.444;13.300;2023-05-07T05:39:29;8.55;;;5.07;;
41739;SDS011;27422;52.444;13.300;2023-05-07T05:41:54;7.88;;;4.50;;
41739;SDS011;27422;52.444;13.300;2023-05-07T05:44:20;9.27;;;5.55;;
41739;SDS011;27422;52.444;13.300;2023-05-07T05:46:45;6.95;;;4.57;;
41739;SDS011;27422;52.444;13.300;2023-05-07T05:49:10;7.50;;;4.13;;
41739;SDS011;27422;52.444;13.300;2023-05-07T05:51:36;7.70;;;4.65;;
41739;SDS011;27422;52.444;13.300;2023-05-07T05:54:01;7.13;;;4.50;;
41739;SDS011;27422;52.444;13.300;2023-05-07T05:56:26;8.27;;;4.85;;
41739;SDS011;27422;52.444;13.300;2023-05-07T05:58:52;7.10;;;4.55;;
41739;SDS011;27422;52.444;13.300;2023-05-07T06:01:18;7.72;;;4.60;;
41739;SDS011;27422;52.444;13.300;2023-05-07T06:03:43;8.15;;;4.43;;
41739;SDS011;27422;52.444;13.300;2023-05-07T06:06:09;7.60;;;4.20;;
41739;SDS011;27422;52.444;13.300;2023-05-07T06:08:34;6.88;;;4.13;;
41739;SDS011;27422;52.444;13.300;2023-05-07T06:11:00;6.50;;;3.78;;
41739;SDS011;27422;52.444;13.300;2023-05-07T06:13:26;8.15;;;4.45;;
41739;SDS011;27422;52.444;13.300;2023-05-07T06:15:51;8.32;;;4.05;;
41739;SDS011;27422;52.444;13.300;2023-05-07T06:18:17;7.13;;;4.00;;
41739;SDS011;27422;52.444;13.300;2023-05-07T06:20:43;7.43;;;4.25;;
41739;SDS011;27422;52.444;13.300;2023-05-07T06:25:35;5.95;;;3.70;;
41739;SDS011;27422;52.444;13.300;2023-05-07T06:28:03;6.03;;;3.47;;
41739;SDS011;27422;52.444;13.300;2023-05-07T06:30:29;5.32;;;3.33;;
41739;SDS011;27422;52.444;13.300;2023-05-07T06:32:54;5.57;;;3.10;;
41739;SDS011;27422;52.444;13.300;2023-05-07T06:35:20;7.88;;;3.38;;
41739;SDS011;27422;52.444;13.300;2023-05-07T06:37:46;4.90;;;3.17;;
41739;SDS011;27422;52.444;13.300;2023-05-07T06:40:11;8.40;;;3.38;;
41739;SDS011;27422;52.444;13.300;2023-05-07T06:42:37;6.15;;;3.78;;
41739;SDS011;27422;52.444;13.300;2023-05-07T06:45:03;6.53;;;3.60;;
41739;SDS011;27422;52.444;13.300;2023-05-07T06:47:29;8.10;;;3.45;;
41739;SDS011;27422;52.444;13.300;2023-05-07T06:49:54;8.30;;;3.80;;
41739;SDS011;27422;52.444;13.300;2023-05-07T06:52:20;6.95;;;4.13;;
41739;SDS011;27422;52.444;13.300;2023-05-07T06:54:45;6.43;;;3.95;;
41739;SDS011;27422;52.444;13.300;2023-05-07T06:57:11;6.13;;;3.67;;
41739;SDS011;27422;52.444;13.300;2023-05-07T06:59:37;5.70;;;3.33;;
41739;SDS011;27422;52.444;13.300;2023-05-07T07:02:03;6.43;;;3.50;;
41739;SDS011;27422;52.444;13.300;2023-05-07T07:04:29;5.45;;;3.13;;
41739;SDS011;27422;52.444;13.300;2023-05-07T07:06:55;6.18;;;3.92;;
41739;SDS011;27422;52.444;13.300;2023-05-07T07:09:21;7.10;;;3.78;;
41739;SDS011;27422;52.444;13.300;2023-05-07T07:11:47;7.47;;;4.18;;
41739;SDS011;27422;52.444;13.300;2023-05-07T07:14:12;7.13;;;4.40;;
41739;SDS011;27422;52.444;13.300;2023-05-07T07:16:38;8.05;;;4.05;;
41739;SDS011;27422;52.444;13.300;2023-05-07T07:19:03;6.68;;;4.07;;
41739;SDS011;27422;52.444;13.300;2023-05-07T07:21:28;5.75;;;3.97;;
41739;SDS011;27422;52.444;13.300;2023-05-07T07:23:55;5.82;;;3.80;;
41739;SDS011;27422;52.444;13.300;2023-05-07T07:26:20;6.68;;;3.40;;
41739;SDS011;27422;52.444;13.300;2023-05-07T07:28:45;6.13;;;3.70;;
41739;SDS011;27422;52.444;13.300;2023-05-07T07:31:11;5.68;;;3.30;;
41739;SDS011;27422;52.444;13.300;2023-05-07T07:33:37;5.75;;;3.25;;
41739;SDS011;27422;52.444;13.300;2023-05-07T07:36:02;5.38;;;3.25;;
41739;SDS011;27422;52.444;13.300;2023-05-07T07:38:28;7.22;;;3.30;;
41739;SDS011;27422;52.444;13.300;2023-05-07T07:40:53;5.57;;;2.95;;
41739;SDS011;27422;52.444;13.300;2023-05-07T07:43:18;6.28;;;2.95;;
41739;SDS011;27422;52.444;13.300;2023-05-07T07:45:44;5.53;;;3.03;;
41739;SDS011;27422;52.444;13.300;2023-05-07T07:48:10;5.75;;;2.90;;
41739;SDS011;27422;52.444;13.300;2023-05-07T07:50:36;6.28;;;3.10;;
41739;SDS011;27422;52.444;13.300;2023-05-07T07:53:01;4.93;;;2.72;;
41739;SDS011;27422;52.444;13.300;2023-05-07T07:55:27;4.30;;;2.58;;
41739;SDS011;27422;52.444;13.300;2023-05-07T07:57:52;4.07;;;2.72;;
41739;SDS011;27422;52.444;13.300;2023-05-07T08:00:18;6.72;;;2.58;;
41739;SDS011;27422;52.444;13.300;2023-05-07T08:02:43;5.40;;;2.55;;
41739;SDS011;27422;52.444;13.300;2023-05-07T08:05:09;6.55;;;2.75;;
41739;SDS011;27422;52.444;13.300;2023-05-07T08:07:34;4.75;;;2.50;;
41739;SDS011;27422;52.444;13.300;2023-05-07T08:10:00;4.95;;;2.40;;
41739;SDS011;27422;52.444;13.300;2023-05-07T08:12:25;5.68;;;2.67;;
41739;SDS011;27422;52.444;13.300;2023-05-07T08:14:50;5.07;;;2.40;;
41739;SDS011;27422;52.444;13.300;2023-05-07T08:17:16;3.80;;;2.13;;
41739;SDS011;27422;52.444;13.300;2023-05-07T08:19:42;3.90;;;1.90;;
41739;SDS011;27422;52.444;13.300;2023-05-07T08:22:08;4.53;;;2.20;;
41739;SDS011;27422;52.444;13.300;2023-05-07T08:24:34;4.35;;;1.95;;
41739;SDS011;27422;52.444;13.300;2023-05-07T08:26:59;3.97;;;2.10;;
41739;SDS011;27422;52.444;13.300;2023-05-07T08:29:25;4.50;;;1.90;;
41739;SDS011;27422;52.444;13.300;2023-05-07T08:31:50;3.45;;;1.60;;
41739;SDS011;27422;52.444;13.300;2023-05-07T08:34:17;3.80;;;1.85;;
41739;SDS011;27422;52.444;13.300;2023-05-07T08:36:43;3.13;;;1.88;;
41739;SDS011;27422;52.444;13.300;2023-05-07T08:39:09;4.60;;;2.20;;
41739;SDS011;27422;52.444;13.300;2023-05-07T08:41:34;4.80;;;1.98;;
41739;SDS011;27422;52.444;13.300;2023-05-07T08:43:59;4.82;;;1.77;;
41739;SDS011;27422;52.444;13.300;2023-05-07T08:46:29;3.42;;;1.67;;
41739;SDS011;27422;52.444;13.300;2023-05-07T08:48:56;4.50;;;1.77;;
41739;SDS011;27422;52.444;13.300;2023-05-07T08:51:22;3.25;;;1.60;;
41739;SDS011;27422;52.444;13.300;2023-05-07T08:53:47;3.63;;;1.63;;
41739;SDS011;27422;52.444;13.300;2023-05-07T08:56:14;5.00;;;2.05;;
41739;SDS011;27422;52.444;13.300;2023-05-07T08:58:43;3.70;;;1.75;;
41739;SDS011;27422;52.444;13.300;2023-05-07T09:01:10;4.65;;;1.70;;
41739;SDS011;27422;52.444;13.300;2023-05-07T09:03:41;5.47;;;1.85;;
41739;SDS011;27422;52.444;13.300;2023-05-07T09:06:10;3.88;;;1.73;;
41739;SDS011;27422;52.444;13.300;2023-05-07T09:08:36;3.55;;;1.58;;
41739;SDS011;27422;52.444;13.300;2023-05-07T09:11:01;3.40;;;1.70;;
41739;SDS011;27422;52.444;13.300;2023-05-07T09:13:27;4.18;;;1.52;;
41739;SDS011;27422;52.444;13.300;2023-05-07T09:15:53;4.05;;;2.15;;
41739;SDS011;27422;52.444;13.300;2023-05-07T09:18:19;3.88;;;1.58;;
41739;SDS011;27422;52.444;13.300;2023-05-07T09:20:44;3.20;;;1.55;;
41739;SDS011;27422;52.444;13.300;2023-05-07T09:23:10;3.10;;;1.50;;
41739;SDS011;27422;52.444;13.300;2023-05-07T09:25:35;4.70;;;1.63;;
41739;SDS011;27422;52.444;13.300;2023-05-07T09:28:02;3.60;;;1.60;;
41739;SDS011;27422;52.444;13.300;2023-05-07T09:30:31;3.45;;;1.55;;
41739;SDS011;27422;52.444;13.300;2023-05-07T09:32:58;2.72;;;1.40;;
41739;SDS011;27422;52.444;13.300;2023-05-07T09:35:25;2.90;;;1.50;;
41739;SDS011;27422;52.444;13.300;2023-05-07T09:40:24;3.60;;;1.70;;
41739;SDS011;27422;52.444;13.300;2023-05-07T09:42:51;2.28;;;1.17;;
41739;SDS011;27422;52.444;13.300;2023-05-07T09:45:21;4.95;;;1.73;;
41739;SDS011;27422;52.444;13.300;2023-05-07T09:47:47;4.85;;;1.70;;
41739;SDS011;27422;52.444;13.300;2023-05-07T09:50:13;2.80;;;1.42;;
41739;SDS011;27422;52.444;13.300;2023-05-07T09:52:41;3.13;;;1.50;;
41739;SDS011;27422;52.444;13.300;2023-05-07T09:55:07;2.85;;;1.42;;
41739;SDS011;27422;52.444;13.300;2023-05-07T09:57:33;2.80;;;1.40;;
41739;SDS011;27422;52.444;13.300;2023-05-07T10:00:00;3.42;;;1.70;;
41739;SDS011;27422;52.444;13.300;2023-05-07T10:02:29;2.95;;;1.35;;
41739;SDS011;27422;52.444;13.300;2023-05-07T10:04:56;3.15;;;1.50;;
41739;SDS011;27422;52.444;13.300;2023-05-07T10:07:21;2.75;;;1.38;;
41739;SDS011;27422;52.444;13.300;2023-05-07T10:09:47;2.78;;;1.40;;
41739;SDS011;27422;52.444;13.300;2023-05-07T10:12:14;3.45;;;1.48;;
41739;SDS011;27422;52.444;13.300;2023-05-07T10:14:40;3.13;;;1.50;;
41739;SDS011;27422;52.444;13.300;2023-05-07T10:17:05;2.85;;;1.40;;
41739;SDS011;27422;52.444;13.300;2023-05-07T10:19:31;3.47;;;1.60;;
41739;SDS011;27422;52.444;13.300;2023-05-07T10:22:00;3.83;;;1.57;;
41739;SDS011;27422;52.444;13.300;2023-05-07T10:24:29;3.20;;;1.40;;
41739;SDS011;27422;52.444;13.300;2023-05-07T10:26:59;4.15;;;1.67;;
41739;SDS011;27422;52.444;13.300;2023-05-07T10:29:30;3.47;;;1.48;;
41739;SDS011;27422;52.444;13.300;2023-05-07T10:35:01;3.25;;;1.40;;
41739;SDS011;27422;52.444;13.300;2023-05-07T10:37:28;4.15;;;1.65;;
41739;SDS011;27422;52.444;13.300;2023-05-07T10:39:54;2.88;;;1.30;;
41739;SDS011;27422;52.444;13.300;2023-05-07T10:42:19;4.05;;;1.38;;
41739;SDS011;27422;52.444;13.300;2023-05-07T10:44:45;3.08;;;1.30;;
41739;SDS011;27422;52.444;13.300;2023-05-07T10:47:11;2.45;;;1.10;;
41739;SDS011;27422;52.444;13.300;2023-05-07T10:52:12;2.20;;;1.08;;
41739;SDS011;27422;52.444;13.300;2023-05-07T10:55:18;2.55;;;1.05;;
41739;SDS011;27422;52.444;13.300;2023-05-07T10:57:40;2.97;;;0.90;;
41739;SDS011;27422;52.444;13.300;2023-05-07T11:05:27;2.97;;;1.00;;
41739;SDS011;27422;52.444;13.300;2023-05-07T11:08:03;2.25;;;1.00;;
41739;SDS011;27422;52.444;13.300;2023-05-07T11:16:30;2.13;;;0.80;;
41739;SDS011;27422;52.444;13.300;2023-05-07T11:18:56;2.25;;;0.88;;
41739;SDS011;27422;52.444;13.300;2023-05-07T11:24:08;1.83;;;0.77;;
41739;SDS011;27422;52.444;13.300;2023-05-07T11:26:42;2.20;;;0.95;;
41739;SDS011;27422;52.444;13.300;2023-05-07T11:29:12;2.25;;;0.95;;
41739;SDS011;27422;52.444;13.300;2023-05-07T11:31:48;2.90;;;1.42;;
41739;SDS011;27422;52.444;13.300;2023-05-07T11:34:20;2.90;;;0.80;;
41739;SDS011;27422;52.444;13.300;2023-05-07T11:36:49;1.50;;;0.68;;
41739;SDS011;27422;52.444;13.300;2023-05-07T11:41:50;1.95;;;0.88;;
41739;SDS011;27422;52.444;13.300;2023-05-07T11:44:15;1.85;;;0.60;;
41739;SDS011;27422;52.444;13.300;2023-05-07T11:46:42;2.67;;;0.80;;
41739;SDS011;27422;52.444;13.300;2023-05-07T11:49:09;3.15;;;0.70;;
41739;SDS011;27422;52.444;13.300;2023-05-07T11:51:35;1.48;;;0.70;;
41739;SDS011;27422;52.444;13.300;2023-05-07T11:54:00;2.38;;;0.60;;
41739;SDS011;27422;52.444;13.300;2023-05-07T11:56:28;2.22;;;0.70;;
41739;SDS011;27422;52.444;13.300;2023-05-07T11:58:54;1.55;;;0.70;;
41739;SDS011;27422;52.444;13.300;2023-05-07T12:01:19;1.48;;;0.68;;
41739;SDS011;27422;52.444;13.300;2023-05-07T12:03:45;1.70;;;0.73;;
41739;SDS011;27422;52.444;13.300;2023-05-07T12:06:11;2.47;;;0.90;;
41739;SDS011;27422;52.444;13.300;2023-05-07T12:08:40;2.45;;;0.80;;
41739;SDS011;27422;52.444;13.300;2023-05-07T12:11:07;2.92;;;0.80;;
41739;SDS011;27422;52.444;13.300;2023-05-07T12:13:36;2.83;;;1.20;;
41739;SDS011;27422;52.444;13.300;2023-05-07T12:16:01;2.85;;;1.20;;
41739;SDS011;27422;52.444;13.300;2023-05-07T12:18:30;2.28;;;1.00;;
41739;SDS011;27422;52.444;13.300;2023-05-07T12:20:55;2.20;;;0.90;;
41739;SDS011;27422;52.444;13.300;2023-05-07T12:23:21;1.75;;;0.80;;
41739;SDS011;27422;52.444;13.300;2023-05-07T12:25:47;3.40;;;1.00;;
41739;SDS011;27422;52.444;13.300;2023-05-07T12:28:16;3.33;;;0.95;;
41739;SDS011;27422;52.444;13.300;2023-05-07T12:30:42;2.50;;;0.75;;
41739;SDS011;27422;52.444;13.300;2023-05-07T12:33:08;3.15;;;0.85;;
41739;SDS011;27422;52.444;13.300;2023-05-07T12:35:39;2.08;;;0.70;;
41739;SDS011;27422;52.444;13.300;2023-05-07T12:38:09;2.20;;;0.90;;
41739;SDS011;27422;52.444;13.300;2023-05-07T12:40:36;2.25;;;1.00;;
41739;SDS011;27422;52.444;13.300;2023-05-07T12:43:15;2.22;;;0.98;;
41739;SDS011;27422;52.444;13.300;2023-05-07T12:45:44;2.85;;;1.05;;
41739;SDS011;27422;52.444;13.300;2023-05-07T12:50:37;1.90;;;0.90;;
41739;SDS011;27422;52.444;13.300;2023-05-07T12:53:03;2.45;;;1.00;;
41739;SDS011;27422;52.444;13.300;2023-05-07T12:55:31;2.00;;;1.00;;
41739;SDS011;27422;52.444;13.300;2023-05-07T12:57:57;2.97;;;1.10;;
41739;SDS011;27422;52.444;13.300;2023-05-07T13:00:36;2.50;;;1.02;;
41739;SDS011;27422;52.444;13.300;2023-05-07T13:03:01;2.70;;;1.02;;
41739;SDS011;27422;52.444;13.300;2023-05-07T13:05:27;2.38;;;1.00;;
41739;SDS011;27422;52.444;13.300;2023-05-07T13:07:55;2.10;;;0.82;;
41739;SDS011;27422;52.444;13.300;2023-05-07T13:10:21;3.50;;;1.27;;
41739;SDS011;27422;52.444;13.300;2023-05-07T13:12:48;2.23;;;1.00;;
41739;SDS011;27422;52.444;13.300;2023-05-07T13:15:13;2.78;;;1.00;;
41739;SDS011;27422;52.444;13.300;2023-05-07T13:17:39;3.08;;;1.00;;
41739;SDS011;27422;52.444;13.300;2023-05-07T13:20:04;2.83;;;1.10;;
41739;SDS011;27422;52.444;13.300;2023-05-07T13:22:30;1.85;;;0.90;;
41739;SDS011;27422;52.444;13.300;2023-05-07T13:24:56;3.17;;;0.88;;
41739;SDS011;27422;52.444;13.300;2023-05-07T13:27:22;2.60;;;0.80;;
41739;SDS011;27422;52.444;13.300;2023-05-07T13:29:47;1.95;;;0.90;;
41739;SDS011;27422;52.444;13.300;2023-05-07T13:32:12;3.20;;;0.85;;
41739;SDS011;27422;52.444;13.300;2023-05-07T13:34:38;2.22;;;0.80;;
41739;SDS011;27422;52.444;13.300;2023-05-07T13:37:03;1.83;;;0.77;;
41739;SDS011;27422;52.444;13.300;2023-05-07T13:39:28;1.75;;;0.60;;
41739;SDS011;27422;52.444;13.300;2023-05-07T13:41:54;1.77;;;0.70;;
41739;SDS011;27422;52.444;13.300;2023-05-07T13:44:19;1.67;;;0.60;;
41739;SDS011;27422;52.444;13.300;2023-05-07T13:46:45;1.90;;;0.60;;
41739;SDS011;27422;52.444;13.300;2023-05-07T13:49:11;2.35;;;0.70;;
41739;SDS011;27422;52.444;13.300;2023-05-07T13:51:37;1.90;;;0.60;;
41739;SDS011;27422;52.444;13.300;2023-05-07T13:54:03;1.55;;;0.65;;
41739;SDS011;27422;52.444;13.300;2023-05-07T13:56:29;1.58;;;0.60;;
41739;SDS011;27422;52.444;13.300;2023-05-07T13:58:56;1.77;;;0.70;;
41739;SDS011;27422;52.444;13.300;2023-05-07T14:01:21;1.70;;;0.60;;
41739;SDS011;27422;52.444;13.300;2023-05-07T14:03:47;1.50;;;0.70;;
41739;SDS011;27422;52.444;13.300;2023-05-07T14:06:12;1.98;;;0.70;;
41739;SDS011;27422;52.444;13.300;2023-05-07T14:08:37;1.48;;;0.60;;
41739;SDS011;27422;52.444;13.300;2023-05-07T14:11:03;2.33;;;0.90;;
41739;SDS011;27422;52.444;13.300;2023-05-07T14:13:28;1.73;;;0.60;;
41739;SDS011;27422;52.444;13.300;2023-05-07T14:15:55;1.80;;;0.70;;
41739;SDS011;27422;52.444;13.300;2023-05-07T14:18:21;1.70;;;0.68;;
41739;SDS011;27422;52.444;13.300;2023-05-07T14:20:46;1.33;;;0.60;;
41739;SDS011;27422;52.444;13.300;2023-05-07T14:23:13;1.73;;;0.70;;
41739;SDS011;27422;52.444;13.300;2023-05-07T14:25:39;2.13;;;0.82;;
41739;SDS011;27422;52.444;13.300;2023-05-07T14:28:04;1.63;;;0.80;;
41739;SDS011;27422;52.444;13.300;2023-05-07T14:30:30;2.55;;;0.88;;
41739;SDS011;27422;52.444;13.300;2023-05-07T14:32:55;2.28;;;0.90;;
41739;SDS011;27422;52.444;13.300;2023-05-07T14:35:21;2.20;;;0.80;;
41739;SDS011;27422;52.444;13.300;2023-05-07T14:37:46;2.00;;;0.75;;
41739;SDS011;27422;52.444;13.300;2023-05-07T14:40:12;2.05;;;0.80;;
41739;SDS011;27422;52.444;13.300;2023-05-07T14:42:38;2.08;;;0.90;;
41739;SDS011;27422;52.444;13.300;2023-05-07T14:45:03;2.67;;;0.93;;
41739;SDS011;27422;52.444;13.300;2023-05-07T14:47:29;1.40;;;0.80;;
41739;SDS011;27422;52.444;13.300;2023-05-07T14:49:54;2.95;;;0.95;;
41739;SDS011;27422;52.444;13.300;2023-05-07T14:52:21;1.45;;;0.80;;
41739;SDS011;27422;52.444;13.300;2023-05-07T14:54:46;5.25;;;1.10;;